sensor_id;sensor_type;location;lat;lon;timestamp;P1;durP1;ratioP1;P2;durP2;ratioP2
13325;SDS011;6732;51.044;3.746;2022-10-31T02:48:14;5.28;;;3.95;;
13325;SDS011;6732;51.044;3.746;2022-10-31T02:50:56;4.70;;;3.50;;
13325;SDS011;6732;51.044;3.746;2022-10-31T02:53:25;4.75;;;3.30;;
13325;SDS011;6732;51.044;3.746;2022-10-31T02:55:56;6.95;;;3.78;;
13325;SDS011;6732;51.044;3.746;2022-10-31T02:58:26;6.50;;;3.40;;
13325;SDS011;6732;51.044;3.746;2022-10-31T03:09:43;8.00;;;4.18;;
13325;SDS011;6732;51.044;3.746;2022-10-31T03:15:49;5.55;;;4.35;;
13325;SDS011;6732;51.044;3.746;2022-10-31T03:21:01;5.45;;;3.67;;
13325;SDS011;6732;51.044;3.746;2022-10-31T03:23:32;7.13;;;4.05;;
13325;SDS011;6732;51.044;3.746;2022-10-31T03:26:01;5.20;;;3.50;;
13325;SDS011;6732;51.044;3.746;2022-10-31T03:28:33;7.93;;;3.88;;
13325;SDS011;6732;51.044;3.746;2022-10-31T03:31:02;6.13;;;3.92;;
13325;SDS011;6732;51.044;3.746;2022-10-31T03:33:31;4.65;;;3.80;;
13325;SDS011;6732;51.044;3.746;2022-10-31T03:36:02;8.43;;;4.20;;
13325;SDS011;6732;51.044;3.746;2022-10-31T03:38:31;5.97;;;3.83;;
13325;SDS011;6732;51.044;3.746;2022-10-31T03:40:59;7.15;;;4.00;;
13325;SDS011;6732;51.044;3.746;2022-10-31T03:43:31;6.95;;;4.32;;
13325;SDS011;6732;51.044;3.746;2022-10-31T03:46:02;7.10;;;3.80;;
13325;SDS011;6732;51.044;3.746;2022-10-31T03:48:29;6.50;;;4.30;;
13325;SDS011;6732;51.044;3.746;2022-10-31T03:51:05;7.25;;;3.90;;
13325;SDS011;6732;51.044;3.746;2022-10-31T03:56:42;7.10;;;4.32;;
13325;SDS011;6732;51.044;3.746;2022-10-31T03:59:26;6.57;;;4.10;;
13325;SDS011;6732;51.044;3.746;2022-10-31T04:01:59;7.20;;;4.00;;
13325;SDS011;6732;51.044;3.746;2022-10-31T04:04:31;5.03;;;4.40;;
13325;SDS011;6732;51.044;3.746;2022-10-31T04:06:59;8.65;;;4.50;;
13325;SDS011;6732;51.044;3.746;2022-10-31T04:09:27;8.05;;;4.60;;
13325;SDS011;6732;51.044;3.746;2022-10-31T04:11:56;7.45;;;4.18;;
13325;SDS011;6732;51.044;3.746;2022-10-31T04:14:25;6.65;;;4.07;;
13325;SDS011;6732;51.044;3.746;2022-10-31T04:16:55;8.38;;;4.40;;
13325;SDS011;6732;51.044;3.746;2022-10-31T04:19:21;8.52;;;4.40;;
13325;SDS011;6732;51.044;3.746;2022-10-31T04:21:46;6.57;;;4.45;;
13325;SDS011;6732;51.044;3.746;2022-10-31T04:24:12;7.78;;;4.60;;
13325;SDS011;6732;51.044;3.746;2022-10-31T04:26:38;7.40;;;4.80;;
13325;SDS011;6732;51.044;3.746;2022-10-31T04:29:04;8.90;;;5.05;;
13325;SDS011;6732;51.044;3.746;2022-10-31T04:31:30;5.43;;;4.40;;
13325;SDS011;6732;51.044;3.746;2022-10-31T04:33:55;6.78;;;4.63;;
13325;SDS011;6732;51.044;3.746;2022-10-31T04:36:22;8.55;;;4.90;;
13325;SDS011;6732;51.044;3.746;2022-10-31T04:38:47;8.73;;;5.57;;
13325;SDS011;6732;51.044;3.746;2022-10-31T04:41:13;7.28;;;5.68;;
13325;SDS011;6732;51.044;3.746;2022-10-31T04:43:39;11.10;;;5.18;;
13325;SDS011;6732;51.044;3.746;2022-10-31T04:46:05;7.70;;;5.65;;
13325;SDS011;6732;51.044;3.746;2022-10-31T04:48:31;6.85;;;4.80;;
13325;SDS011;6732;51.044;3.746;2022-10-31T04:51:00;6.53;;;4.45;;
13325;SDS011;6732;51.044;3.746;2022-10-31T04:53:27;6.78;;;5.18;;
13325;SDS011;6732;51.044;3.746;2022-10-31T04:55:53;5.45;;;4.55;;
13325;SDS011;6732;51.044;3.746;2022-10-31T04:58:19;6.70;;;4.38;;
13325;SDS011;6732;51.044;3.746;2022-10-31T05:00:45;5.95;;;4.85;;
13325;SDS011;6732;51.044;3.746;2022-10-31T05:03:11;5.35;;;4.20;;
13325;SDS011;6732;51.044;3.746;2022-10-31T05:05:37;5.18;;;4.35;;
13325;SDS011;6732;51.044;3.746;2022-10-31T05:08:03;5.65;;;3.90;;
13325;SDS011;6732;51.044;3.746;2022-10-31T05:10:29;6.50;;;4.00;;
13325;SDS011;6732;51.044;3.746;2022-10-31T05:12:57;4.60;;;3.83;;
13325;SDS011;6732;51.044;3.746;2022-10-31T05:15:24;6.00;;;4.50;;
13325;SDS011;6732;51.044;3.746;2022-10-31T05:17:52;8.02;;;4.78;;
13325;SDS011;6732;51.044;3.746;2022-10-31T05:20:19;5.78;;;4.05;;
13325;SDS011;6732;51.044;3.746;2022-10-31T05:22:47;4.95;;;4.18;;
13325;SDS011;6732;51.044;3.746;2022-10-31T05:25:18;6.43;;;4.07;;
13325;SDS011;6732;51.044;3.746;2022-10-31T05:27:46;6.82;;;4.63;;
13325;SDS011;6732;51.044;3.746;2022-10-31T05:30:14;5.20;;;4.63;;
13325;SDS011;6732;51.044;3.746;2022-10-31T05:32:43;6.32;;;4.80;;
13325;SDS011;6732;51.044;3.746;2022-10-31T05:35:13;6.32;;;4.93;;
13325;SDS011;6732;51.044;3.746;2022-10-31T05:37:45;5.97;;;4.63;;
13325;SDS011;6732;51.044;3.746;2022-10-31T05:40:12;5.00;;;4.40;;
13325;SDS011;6732;51.044;3.746;2022-10-31T05:42:39;5.60;;;4.57;;
13325;SDS011;6732;51.044;3.746;2022-10-31T05:45:07;6.55;;;4.32;;
13325;SDS011;6732;51.044;3.746;2022-10-31T05:47:34;5.88;;;4.85;;
13325;SDS011;6732;51.044;3.746;2022-10-31T05:50:00;5.97;;;4.85;;
13325;SDS011;6732;51.044;3.746;2022-10-31T05:52:26;5.72;;;5.00;;
13325;SDS011;6732;51.044;3.746;2022-10-31T05:54:52;6.80;;;5.60;;
13325;SDS011;6732;51.044;3.746;2022-10-31T05:57:18;5.72;;;4.70;;
13325;SDS011;6732;51.044;3.746;2022-10-31T05:59:44;5.72;;;4.70;;
13325;SDS011;6732;51.044;3.746;2022-10-31T06:02:10;6.43;;;4.40;;
13325;SDS011;6732;51.044;3.746;2022-10-31T06:04:36;5.07;;;4.13;;
13325;SDS011;6732;51.044;3.746;2022-10-31T06:07:01;5.45;;;4.50;;
13325;SDS011;6732;51.044;3.746;2022-10-31T06:09:27;5.45;;;4.55;;
13325;SDS011;6732;51.044;3.746;2022-10-31T06:11:53;5.55;;;5.00;;
13325;SDS011;6732;51.044;3.746;2022-10-31T06:17:07;8.57;;;4.97;;
13325;SDS011;6732;51.044;3.746;2022-10-31T06:19:38;6.45;;;5.00;;
13325;SDS011;6732;51.044;3.746;2022-10-31T06:22:05;6.97;;;4.82;;
13325;SDS011;6732;51.044;3.746;2022-10-31T06:24:33;8.80;;;5.50;;
13325;SDS011;6732;51.044;3.746;2022-10-31T06:27:03;7.22;;;5.25;;
13325;SDS011;6732;51.044;3.746;2022-10-31T06:29:32;8.90;;;6.18;;
13325;SDS011;6732;51.044;3.746;2022-10-31T06:32:00;7.05;;;6.00;;
13325;SDS011;6732;51.044;3.746;2022-10-31T06:34:27;8.63;;;6.05;;
13325;SDS011;6732;51.044;3.746;2022-10-31T06:37:05;7.40;;;6.35;;
13325;SDS011;6732;51.044;3.746;2022-10-31T06:39:34;8.43;;;5.68;;
13325;SDS011;6732;51.044;3.746;2022-10-31T06:42:03;11.07;;;5.63;;
13325;SDS011;6732;51.044;3.746;2022-10-31T06:44:40;7.90;;;6.45;;
13325;SDS011;6732;51.044;3.746;2022-10-31T06:47:12;7.95;;;6.13;;
13325;SDS011;6732;51.044;3.746;2022-10-31T06:49:42;8.32;;;5.30;;
13325;SDS011;6732;51.044;3.746;2022-10-31T06:52:10;7.65;;;6.80;;
13325;SDS011;6732;51.044;3.746;2022-10-31T06:54:37;8.23;;;6.53;;
13325;SDS011;6732;51.044;3.746;2022-10-31T06:57:08;10.30;;;7.22;;
13325;SDS011;6732;51.044;3.746;2022-10-31T06:59:44;8.45;;;5.75;;
13325;SDS011;6732;51.044;3.746;2022-10-31T07:02:12;8.13;;;5.82;;
13325;SDS011;6732;51.044;3.746;2022-10-31T07:04:38;10.52;;;7.22;;
13325;SDS011;6732;51.044;3.746;2022-10-31T07:07:04;10.55;;;6.82;;
13325;SDS011;6732;51.044;3.746;2022-10-31T07:09:31;9.27;;;6.50;;
13325;SDS011;6732;51.044;3.746;2022-10-31T07:11:57;7.70;;;5.63;;
13325;SDS011;6732;51.044;3.746;2022-10-31T07:14:26;9.18;;;5.80;;
13325;SDS011;6732;51.044;3.746;2022-10-31T07:16:54;9.80;;;5.70;;
13325;SDS011;6732;51.044;3.746;2022-10-31T07:19:23;11.93;;;6.13;;
13325;SDS011;6732;51.044;3.746;2022-10-31T07:21:49;12.63;;;6.30;;
13325;SDS011;6732;51.044;3.746;2022-10-31T07:24:16;8.32;;;6.00;;
13325;SDS011;6732;51.044;3.746;2022-10-31T07:26:42;8.73;;;5.85;;
13325;SDS011;6732;51.044;3.746;2022-10-31T07:29:08;7.60;;;5.70;;
13325;SDS011;6732;51.044;3.746;2022-10-31T07:31:34;9.27;;;6.25;;
13325;SDS011;6732;51.044;3.746;2022-10-31T07:34:00;8.52;;;6.20;;
13325;SDS011;6732;51.044;3.746;2022-10-31T07:36:27;8.13;;;6.22;;
13325;SDS011;6732;51.044;3.746;2022-10-31T07:38:56;9.38;;;6.32;;
13325;SDS011;6732;51.044;3.746;2022-10-31T07:41:27;9.85;;;6.47;;
13325;SDS011;6732;51.044;3.746;2022-10-31T07:43:56;8.38;;;6.45;;
13325;SDS011;6732;51.044;3.746;2022-10-31T07:46:31;10.85;;;7.88;;
13325;SDS011;6732;51.044;3.746;2022-10-31T07:49:01;12.10;;;8.02;;
13325;SDS011;6732;51.044;3.746;2022-10-31T07:51:42;11.50;;;7.35;;
13325;SDS011;6732;51.044;3.746;2022-10-31T07:54:13;9.30;;;7.22;;
13325;SDS011;6732;51.044;3.746;2022-10-31T07:56:42;11.82;;;8.10;;
13325;SDS011;6732;51.044;3.746;2022-10-31T07:59:08;9.93;;;8.10;;
13325;SDS011;6732;51.044;3.746;2022-10-31T08:01:35;11.95;;;8.38;;
13325;SDS011;6732;51.044;3.746;2022-10-31T08:04:07;12.98;;;7.43;;
13325;SDS011;6732;51.044;3.746;2022-10-31T08:06:36;11.15;;;8.07;;
13325;SDS011;6732;51.044;3.746;2022-10-31T08:09:04;12.13;;;8.43;;
13325;SDS011;6732;51.044;3.746;2022-10-31T08:11:31;10.65;;;8.63;;
13325;SDS011;6732;51.044;3.746;2022-10-31T08:13:57;13.45;;;7.55;;
13325;SDS011;6732;51.044;3.746;2022-10-31T08:16:24;11.27;;;9.45;;
13325;SDS011;6732;51.044;3.746;2022-10-31T08:18:51;9.77;;;7.40;;
13325;SDS011;6732;51.044;3.746;2022-10-31T08:21:19;9.55;;;6.85;;
13325;SDS011;6732;51.044;3.746;2022-10-31T08:23:46;9.35;;;7.00;;
13325;SDS011;6732;51.044;3.746;2022-10-31T08:26:15;10.90;;;7.63;;
13325;SDS011;6732;51.044;3.746;2022-10-31T08:28:49;10.88;;;7.35;;
13325;SDS011;6732;51.044;3.746;2022-10-31T08:31:20;8.93;;;6.85;;
13325;SDS011;6732;51.044;3.746;2022-10-31T08:33:49;8.45;;;7.25;;
13325;SDS011;6732;51.044;3.746;2022-10-31T08:36:20;10.90;;;7.40;;
13325;SDS011;6732;51.044;3.746;2022-10-31T08:38:47;11.30;;;8.60;;
13325;SDS011;6732;51.044;3.746;2022-10-31T08:41:16;11.27;;;8.00;;
13325;SDS011;6732;51.044;3.746;2022-10-31T08:43:56;13.10;;;7.85;;
13325;SDS011;6732;51.044;3.746;2022-10-31T08:46:32;11.95;;;7.55;;
13325;SDS011;6732;51.044;3.746;2022-10-31T08:49:04;14.93;;;7.53;;
13325;SDS011;6732;51.044;3.746;2022-10-31T08:51:30;9.20;;;6.68;;
13325;SDS011;6732;51.044;3.746;2022-10-31T08:53:59;11.25;;;7.53;;
13325;SDS011;6732;51.044;3.746;2022-10-31T08:56:27;13.65;;;7.20;;
13325;SDS011;6732;51.044;3.746;2022-10-31T08:58:57;10.15;;;6.97;;
13325;SDS011;6732;51.044;3.746;2022-10-31T09:01:30;9.77;;;6.72;;
13325;SDS011;6732;51.044;3.746;2022-10-31T09:03:57;15.38;;;7.72;;
13325;SDS011;6732;51.044;3.746;2022-10-31T09:06:28;9.07;;;6.95;;
13325;SDS011;6732;51.044;3.746;2022-10-31T09:09:10;9.07;;;6.55;;
13325;SDS011;6732;51.044;3.746;2022-10-31T09:11:44;13.18;;;7.43;;
13325;SDS011;6732;51.044;3.746;2022-10-31T09:14:21;11.00;;;7.63;;
13325;SDS011;6732;51.044;3.746;2022-10-31T09:16:50;10.10;;;7.10;;
13325;SDS011;6732;51.044;3.746;2022-10-31T09:19:27;9.57;;;7.00;;
13325;SDS011;6732;51.044;3.746;2022-10-31T09:22:38;13.10;;;8.15;;
13325;SDS011;6732;51.044;3.746;2022-10-31T09:25:04;11.75;;;7.75;;
13325;SDS011;6732;51.044;3.746;2022-10-31T09:27:30;10.90;;;7.80;;
13325;SDS011;6732;51.044;3.746;2022-10-31T09:29:56;10.77;;;7.72;;
13325;SDS011;6732;51.044;3.746;2022-10-31T09:32:22;10.65;;;7.72;;
13325;SDS011;6732;51.044;3.746;2022-10-31T09:34:51;12.10;;;8.32;;
13325;SDS011;6732;51.044;3.746;2022-10-31T09:37:17;11.40;;;8.02;;
13325;SDS011;6732;51.044;3.746;2022-10-31T09:39:42;12.30;;;8.75;;
13325;SDS011;6732;51.044;3.746;2022-10-31T09:42:20;14.25;;;8.40;;
13325;SDS011;6732;51.044;3.746;2022-10-31T09:44:51;12.63;;;8.50;;
13325;SDS011;6732;51.044;3.746;2022-10-31T09:53:01;14.45;;;8.88;;
13325;SDS011;6732;51.044;3.746;2022-10-31T09:55:35;12.95;;;8.63;;
13325;SDS011;6732;51.044;3.746;2022-10-31T09:58:04;13.90;;;9.35;;
13325;SDS011;6732;51.044;3.746;2022-10-31T10:00:31;17.15;;;8.75;;
13325;SDS011;6732;51.044;3.746;2022-10-31T10:08:32;11.32;;;8.52;;
13325;SDS011;6732;51.044;3.746;2022-10-31T10:14:03;13.25;;;9.07;;
13325;SDS011;6732;51.044;3.746;2022-10-31T10:25:33;12.80;;;9.45;;
13325;SDS011;6732;51.044;3.746;2022-10-31T10:28:17;15.88;;;9.70;;
13325;SDS011;6732;51.044;3.746;2022-10-31T10:31:01;14.80;;;8.98;;
13325;SDS011;6732;51.044;3.746;2022-10-31T10:33:33;16.40;;;8.77;;
13325;SDS011;6732;51.044;3.746;2022-10-31T10:36:16;14.65;;;9.88;;
13325;SDS011;6732;51.044;3.746;2022-10-31T10:39:08;14.82;;;8.85;;
13325;SDS011;6732;51.044;3.746;2022-10-31T10:41:50;14.70;;;9.15;;
13325;SDS011;6732;51.044;3.746;2022-10-31T10:44:39;13.77;;;9.20;;
13325;SDS011;6732;51.044;3.746;2022-10-31T10:47:28;12.68;;;8.50;;
13325;SDS011;6732;51.044;3.746;2022-10-31T10:50:12;15.18;;;8.48;;
13325;SDS011;6732;51.044;3.746;2022-10-31T10:55:36;13.45;;;9.00;;
13325;SDS011;6732;51.044;3.746;2022-10-31T10:58:16;11.70;;;8.32;;
13325;SDS011;6732;51.044;3.746;2022-10-31T11:00:43;15.30;;;8.65;;
13325;SDS011;6732;51.044;3.746;2022-10-31T11:03:13;15.85;;;9.52;;
13325;SDS011;6732;51.044;3.746;2022-10-31T11:05:53;12.35;;;8.13;;
13325;SDS011;6732;51.044;3.746;2022-10-31T11:08:27;10.95;;;7.97;;
13325;SDS011;6732;51.044;3.746;2022-10-31T11:11:02;14.23;;;10.05;;
13325;SDS011;6732;51.044;3.746;2022-10-31T11:13:29;16.70;;;10.85;;
13325;SDS011;6732;51.044;3.746;2022-10-31T11:15:59;13.55;;;9.23;;
13325;SDS011;6732;51.044;3.746;2022-10-31T11:18:29;13.93;;;7.95;;
13325;SDS011;6732;51.044;3.746;2022-10-31T11:20:58;16.33;;;9.05;;
13325;SDS011;6732;51.044;3.746;2022-10-31T11:23:26;14.50;;;8.23;;
13325;SDS011;6732;51.044;3.746;2022-10-31T11:25:55;14.32;;;8.52;;
13325;SDS011;6732;51.044;3.746;2022-10-31T11:28:21;16.90;;;9.05;;
13325;SDS011;6732;51.044;3.746;2022-10-31T11:30:48;13.20;;;8.60;;
13325;SDS011;6732;51.044;3.746;2022-10-31T11:33:19;13.25;;;8.30;;
13325;SDS011;6732;51.044;3.746;2022-10-31T11:35:49;13.70;;;8.68;;
13325;SDS011;6732;51.044;3.746;2022-10-31T11:38:19;11.40;;;8.32;;
13325;SDS011;6732;51.044;3.746;2022-10-31T11:40:53;13.88;;;8.90;;
13325;SDS011;6732;51.044;3.746;2022-10-31T11:43:33;14.07;;;8.40;;
13325;SDS011;6732;51.044;3.746;2022-10-31T11:45:59;15.95;;;9.05;;
13325;SDS011;6732;51.044;3.746;2022-10-31T11:48:37;16.15;;;8.90;;
13325;SDS011;6732;51.044;3.746;2022-10-31T11:51:03;12.80;;;8.32;;
13325;SDS011;6732;51.044;3.746;2022-10-31T11:53:32;13.98;;;9.10;;
13325;SDS011;6732;51.044;3.746;2022-10-31T11:56:03;14.32;;;9.52;;
13325;SDS011;6732;51.044;3.746;2022-10-31T11:58:30;15.95;;;9.02;;
13325;SDS011;6732;51.044;3.746;2022-10-31T12:00:56;15.70;;;9.07;;
13325;SDS011;6732;51.044;3.746;2022-10-31T12:05:51;12.98;;;8.85;;
13325;SDS011;6732;51.044;3.746;2022-10-31T12:08:19;15.98;;;9.00;;
13325;SDS011;6732;51.044;3.746;2022-10-31T12:10:49;16.85;;;9.52;;
13325;SDS011;6732;51.044;3.746;2022-10-31T12:16:09;13.27;;;9.07;;
13325;SDS011;6732;51.044;3.746;2022-10-31T12:27:32;16.13;;;9.00;;
13325;SDS011;6732;51.044;3.746;2022-10-31T12:30:19;15.00;;;8.88;;
13325;SDS011;6732;51.044;3.746;2022-10-31T12:38:03;15.27;;;8.65;;
13325;SDS011;6732;51.044;3.746;2022-10-31T12:41:03;14.02;;;8.38;;
13325;SDS011;6732;51.044;3.746;2022-10-31T12:43:39;12.32;;;8.70;;
13325;SDS011;6732;51.044;3.746;2022-10-31T13:00:33;15.02;;;8.75;;
13325;SDS011;6732;51.044;3.746;2022-10-31T13:05:41;17.08;;;9.60;;
13325;SDS011;6732;51.044;3.746;2022-10-31T13:13:34;13.88;;;8.70;;
13325;SDS011;6732;51.044;3.746;2022-10-31T13:18:49;16.65;;;8.77;;
13325;SDS011;6732;51.044;3.746;2022-10-31T13:21:21;14.45;;;9.85;;
13325;SDS011;6732;51.044;3.746;2022-10-31T13:23:53;15.07;;;9.15;;
13325;SDS011;6732;51.044;3.746;2022-10-31T13:26:26;14.55;;;8.40;;
13325;SDS011;6732;51.044;3.746;2022-10-31T13:31:47;11.75;;;8.15;;
13325;SDS011;6732;51.044;3.746;2022-10-31T13:34:24;14.73;;;8.80;;
13325;SDS011;6732;51.044;3.746;2022-10-31T13:39:55;16.63;;;9.98;;
13325;SDS011;6732;51.044;3.746;2022-10-31T13:47:41;17.30;;;10.20;;
13325;SDS011;6732;51.044;3.746;2022-10-31T13:50:21;15.52;;;9.07;;
13325;SDS011;6732;51.044;3.746;2022-10-31T13:52:49;18.23;;;9.95;;
13325;SDS011;6732;51.044;3.746;2022-10-31T13:55:35;19.17;;;10.35;;
13325;SDS011;6732;51.044;3.746;2022-10-31T13:58:03;15.00;;;9.25;;
13325;SDS011;6732;51.044;3.746;2022-10-31T14:00:30;14.48;;;10.23;;
13325;SDS011;6732;51.044;3.746;2022-10-31T14:03:00;14.75;;;9.77;;
13325;SDS011;6732;51.044;3.746;2022-10-31T14:05:33;17.20;;;9.85;;
13325;SDS011;6732;51.044;3.746;2022-10-31T14:08:02;17.15;;;9.88;;
13325;SDS011;6732;51.044;3.746;2022-10-31T14:10:35;17.75;;;9.48;;
13325;SDS011;6732;51.044;3.746;2022-10-31T14:13:04;16.70;;;9.05;;
13325;SDS011;6732;51.044;3.746;2022-10-31T14:15:33;16.52;;;9.95;;
13325;SDS011;6732;51.044;3.746;2022-10-31T14:18:04;17.30;;;9.73;;
13325;SDS011;6732;51.044;3.746;2022-10-31T14:26:16;15.65;;;10.18;;
13325;SDS011;6732;51.044;3.746;2022-10-31T14:28:49;17.83;;;10.82;;
13325;SDS011;6732;51.044;3.746;2022-10-31T14:34:17;15.77;;;9.45;;
13325;SDS011;6732;51.044;3.746;2022-10-31T14:36:55;15.60;;;9.10;;
13325;SDS011;6732;51.044;3.746;2022-10-31T14:39:32;17.13;;;10.30;;
13325;SDS011;6732;51.044;3.746;2022-10-31T14:42:24;17.98;;;10.38;;
13325;SDS011;6732;51.044;3.746;2022-10-31T14:47:53;16.50;;;9.40;;
13325;SDS011;6732;51.044;3.746;2022-10-31T14:53:10;21.13;;;10.68;;
13325;SDS011;6732;51.044;3.746;2022-10-31T14:55:47;16.45;;;9.52;;
13325;SDS011;6732;51.044;3.746;2022-10-31T14:58:16;16.33;;;9.73;;
13325;SDS011;6732;51.044;3.746;2022-10-31T15:01:03;19.52;;;10.30;;
13325;SDS011;6732;51.044;3.746;2022-10-31T15:03:34;16.65;;;10.52;;
13325;SDS011;6732;51.044;3.746;2022-10-31T15:06:09;17.67;;;9.73;;
13325;SDS011;6732;51.044;3.746;2022-10-31T15:08:48;16.80;;;9.95;;
13325;SDS011;6732;51.044;3.746;2022-10-31T15:11:20;16.00;;;9.88;;
13325;SDS011;6732;51.044;3.746;2022-10-31T15:13:54;19.48;;;10.77;;
13325;SDS011;6732;51.044;3.746;2022-10-31T15:16:25;17.60;;;10.23;;
13325;SDS011;6732;51.044;3.746;2022-10-31T15:19:10;20.42;;;11.52;;
13325;SDS011;6732;51.044;3.746;2022-10-31T15:21:42;20.38;;;10.30;;
13325;SDS011;6732;51.044;3.746;2022-10-31T15:24:15;17.45;;;10.63;;
13325;SDS011;6732;51.044;3.746;2022-10-31T15:26:48;15.63;;;9.75;;
13325;SDS011;6732;51.044;3.746;2022-10-31T15:29:18;14.32;;;9.32;;
13325;SDS011;6732;51.044;3.746;2022-10-31T15:31:54;18.10;;;9.85;;
13325;SDS011;6732;51.044;3.746;2022-10-31T15:36:59;14.50;;;9.57;;
13325;SDS011;6732;51.044;3.746;2022-10-31T15:39:25;15.90;;;9.45;;
13325;SDS011;6732;51.044;3.746;2022-10-31T15:41:53;19.05;;;10.27;;
13325;SDS011;6732;51.044;3.746;2022-10-31T15:46:58;16.20;;;9.63;;
13325;SDS011;6732;51.044;3.746;2022-10-31T15:49:30;14.13;;;9.18;;
13325;SDS011;6732;51.044;3.746;2022-10-31T15:52:12;14.52;;;9.20;;
13325;SDS011;6732;51.044;3.746;2022-10-31T15:54:47;15.48;;;9.75;;
13325;SDS011;6732;51.044;3.746;2022-10-31T15:57:17;17.15;;;10.07;;
13325;SDS011;6732;51.044;3.746;2022-10-31T15:59:45;16.35;;;9.95;;
13325;SDS011;6732;51.044;3.746;2022-10-31T16:02:13;16.77;;;9.98;;
13325;SDS011;6732;51.044;3.746;2022-10-31T16:04:50;17.98;;;9.40;;
13325;SDS011;6732;51.044;3.746;2022-10-31T16:07:22;14.38;;;9.18;;
13325;SDS011;6732;51.044;3.746;2022-10-31T16:09:54;16.10;;;9.65;;
13325;SDS011;6732;51.044;3.746;2022-10-31T16:12:35;18.52;;;9.50;;
13325;SDS011;6732;51.044;3.746;2022-10-31T16:15:03;15.00;;;8.90;;
13325;SDS011;6732;51.044;3.746;2022-10-31T16:17:30;16.77;;;8.98;;
13325;SDS011;6732;51.044;3.746;2022-10-31T16:19:58;18.17;;;9.45;;
13325;SDS011;6732;51.044;3.746;2022-10-31T16:22:36;13.57;;;8.63;;
13325;SDS011;6732;51.044;3.746;2022-10-31T16:25:08;14.23;;;8.68;;
13325;SDS011;6732;51.044;3.746;2022-10-31T16:27:37;18.95;;;8.98;;
13325;SDS011;6732;51.044;3.746;2022-10-31T16:33:29;21.67;;;13.57;;
13325;SDS011;6732;51.044;3.746;2022-10-31T16:38:53;20.65;;;12.52;;
13325;SDS011;6732;51.044;3.746;2022-10-31T16:41:20;18.55;;;12.10;;
13325;SDS011;6732;51.044;3.746;2022-10-31T16:43:46;19.38;;;11.95;;
13325;SDS011;6732;51.044;3.746;2022-10-31T16:46:12;23.48;;;11.90;;
13325;SDS011;6732;51.044;3.746;2022-10-31T16:48:43;18.05;;;10.40;;
13325;SDS011;6732;51.044;3.746;2022-10-31T16:51:09;16.35;;;9.48;;
13325;SDS011;6732;51.044;3.746;2022-10-31T16:53:37;16.00;;;9.20;;
13325;SDS011;6732;51.044;3.746;2022-10-31T16:56:03;16.40;;;9.18;;
13325;SDS011;6732;51.044;3.746;2022-10-31T16:58:30;15.38;;;9.88;;
13325;SDS011;6732;51.044;3.746;2022-10-31T17:00:58;13.80;;;8.30;;
13325;SDS011;6732;51.044;3.746;2022-10-31T17:03:26;13.50;;;8.88;;
13325;SDS011;6732;51.044;3.746;2022-10-31T17:05:52;14.18;;;8.82;;
13325;SDS011;6732;51.044;3.746;2022-10-31T17:08:20;15.40;;;9.32;;
13325;SDS011;6732;51.044;3.746;2022-10-31T17:10:46;17.52;;;8.43;;
13325;SDS011;6732;51.044;3.746;2022-10-31T17:13:17;13.52;;;8.63;;
13325;SDS011;6732;51.044;3.746;2022-10-31T17:15:46;15.27;;;9.32;;
13325;SDS011;6732;51.044;3.746;2022-10-31T17:18:15;11.32;;;8.25;;
13325;SDS011;6732;51.044;3.746;2022-10-31T17:20:42;13.98;;;8.30;;
13325;SDS011;6732;51.044;3.746;2022-10-31T17:23:11;14.48;;;7.97;;
13325;SDS011;6732;51.044;3.746;2022-10-31T17:25:39;12.25;;;8.55;;
13325;SDS011;6732;51.044;3.746;2022-10-31T17:28:05;14.90;;;8.52;;
13325;SDS011;6732;51.044;3.746;2022-10-31T17:30:32;14.38;;;8.43;;
13325;SDS011;6732;51.044;3.746;2022-10-31T17:32:58;14.45;;;8.27;;
13325;SDS011;6732;51.044;3.746;2022-10-31T17:35:24;14.90;;;8.88;;
13325;SDS011;6732;51.044;3.746;2022-10-31T17:37:50;17.13;;;9.68;;
13325;SDS011;6732;51.044;3.746;2022-10-31T17:40:17;14.63;;;9.02;;
13325;SDS011;6732;51.044;3.746;2022-10-31T17:42:51;15.13;;;8.63;;
13325;SDS011;6732;51.044;3.746;2022-10-31T17:45:19;17.05;;;8.98;;
13325;SDS011;6732;51.044;3.746;2022-10-31T17:47:46;14.93;;;8.88;;
13325;SDS011;6732;51.044;3.746;2022-10-31T17:50:14;16.38;;;9.80;;
13325;SDS011;6732;51.044;3.746;2022-10-31T17:52:41;14.90;;;8.43;;
13325;SDS011;6732;51.044;3.746;2022-10-31T17:55:07;15.80;;;8.20;;
13325;SDS011;6732;51.044;3.746;2022-10-31T17:57:34;14.60;;;8.35;;
13325;SDS011;6732;51.044;3.746;2022-10-31T18:00:02;14.43;;;8.13;;
13325;SDS011;6732;51.044;3.746;2022-10-31T18:02:29;13.88;;;7.78;;
13325;SDS011;6732;51.044;3.746;2022-10-31T18:04:55;12.43;;;7.45;;
13325;SDS011;6732;51.044;3.746;2022-10-31T18:07:21;12.82;;;7.43;;
13325;SDS011;6732;51.044;3.746;2022-10-31T18:09:47;13.27;;;7.07;;
13325;SDS011;6732;51.044;3.746;2022-10-31T18:12:14;18.15;;;6.68;;
13325;SDS011;6732;51.044;3.746;2022-10-31T18:14:41;11.65;;;6.97;;
13325;SDS011;6732;51.044;3.746;2022-10-31T18:17:07;9.93;;;6.00;;
13325;SDS011;6732;51.044;3.746;2022-10-31T18:19:33;10.48;;;5.93;;
13325;SDS011;6732;51.044;3.746;2022-10-31T18:21:59;10.25;;;5.65;;
13325;SDS011;6732;51.044;3.746;2022-10-31T18:24:25;13.65;;;5.80;;
13325;SDS011;6732;51.044;3.746;2022-10-31T18:26:53;15.18;;;6.13;;
13325;SDS011;6732;51.044;3.746;2022-10-31T18:29:19;10.70;;;5.40;;
13325;SDS011;6732;51.044;3.746;2022-10-31T18:31:45;10.23;;;5.97;;
13325;SDS011;6732;51.044;3.746;2022-10-31T18:34:13;12.20;;;5.88;;
13325;SDS011;6732;51.044;3.746;2022-10-31T18:36:40;8.85;;;5.85;;
13325;SDS011;6732;51.044;3.746;2022-10-31T18:39:06;10.73;;;5.80;;
13325;SDS011;6732;51.044;3.746;2022-10-31T18:41:32;9.90;;;5.53;;
13325;SDS011;6732;51.044;3.746;2022-10-31T18:43:58;12.30;;;5.82;;
13325;SDS011;6732;51.044;3.746;2022-10-31T18:46:24;11.85;;;5.97;;
13325;SDS011;6732;51.044;3.746;2022-10-31T18:48:51;14.15;;;5.68;;
13325;SDS011;6732;51.044;3.746;2022-10-31T18:51:18;12.35;;;5.85;;
13325;SDS011;6732;51.044;3.746;2022-10-31T18:53:51;11.05;;;5.60;;
13325;SDS011;6732;51.044;3.746;2022-10-31T18:56:18;11.60;;;5.72;;
13325;SDS011;6732;51.044;3.746;2022-10-31T18:58:45;12.40;;;5.63;;
13325;SDS011;6732;51.044;3.746;2022-10-31T19:01:11;12.52;;;6.22;;
13325;SDS011;6732;51.044;3.746;2022-10-31T19:03:38;10.73;;;5.13;;
13325;SDS011;6732;51.044;3.746;2022-10-31T19:06:05;9.45;;;5.50;;
13325;SDS011;6732;51.044;3.746;2022-10-31T19:08:33;10.95;;;5.32;;
13325;SDS011;6732;51.044;3.746;2022-10-31T19:11:06;12.45;;;5.90;;
13325;SDS011;6732;51.044;3.746;2022-10-31T19:13:34;10.90;;;5.45;;
13325;SDS011;6732;51.044;3.746;2022-10-31T19:16:11;12.85;;;5.20;;
13325;SDS011;6732;51.044;3.746;2022-10-31T19:18:39;13.25;;;5.70;;
13325;SDS011;6732;51.044;3.746;2022-10-31T19:21:06;11.20;;;5.57;;
13325;SDS011;6732;51.044;3.746;2022-10-31T19:23:34;9.70;;;5.45;;
13325;SDS011;6732;51.044;3.746;2022-10-31T19:26:01;9.30;;;5.45;;
13325;SDS011;6732;51.044;3.746;2022-10-31T19:28:30;12.38;;;5.10;;
13325;SDS011;6732;51.044;3.746;2022-10-31T19:30:58;10.98;;;5.60;;
13325;SDS011;6732;51.044;3.746;2022-10-31T19:33:24;9.63;;;5.63;;
13325;SDS011;6732;51.044;3.746;2022-10-31T19:35:56;9.82;;;5.63;;
13325;SDS011;6732;51.044;3.746;2022-10-31T19:38:24;11.68;;;5.72;;
13325;SDS011;6732;51.044;3.746;2022-10-31T19:40:57;13.02;;;5.50;;
13325;SDS011;6732;51.044;3.746;2022-10-31T19:43:26;8.10;;;5.18;;
13325;SDS011;6732;51.044;3.746;2022-10-31T19:45:56;10.40;;;5.75;;
13325;SDS011;6732;51.044;3.746;2022-10-31T19:48:23;11.60;;;5.30;;
13325;SDS011;6732;51.044;3.746;2022-10-31T19:50:50;12.82;;;6.18;;
13325;SDS011;6732;51.044;3.746;2022-10-31T19:53:17;9.40;;;5.03;;
13325;SDS011;6732;51.044;3.746;2022-10-31T19:55:44;13.50;;;5.63;;
13325;SDS011;6732;51.044;3.746;2022-10-31T19:58:10;10.63;;;4.78;;
13325;SDS011;6732;51.044;3.746;2022-10-31T20:00:37;11.05;;;5.10;;
13325;SDS011;6732;51.044;3.746;2022-10-31T20:03:04;10.60;;;5.25;;